<?xml version="1.0" encoding="UTF-8" standalone="no" ?>
<gpx xmlns="http://www.topografix.com/GPX/1/1" xmlns:xsi="http://www.w3.org/2001/XMLSchema-instance" xsi:schemaLocation="http://www.topografix.com/GPX/1/1 http://www.topografix.com/GPX/1/1/gpx.xsd" version="1.1" creator="VisuGPX - https://www.visugpx.com">
  <metadata>
    <name>Cyclo 11kms</name>
  </metadata>
  <trk>
    <name><![CDATA[Rando 2023-9233957]]></name>
    <trkseg>
      <trkpt lat="47.04189" lon="-0.88774">
        <ele>108</ele>
        <time>2023-05-08T19:45:58Z</time>
      </trkpt>
      <trkpt lat="47.04188" lon="-0.88728">
        <ele>108</ele>
        <time>2023-05-08T19:46:04Z</time>
      </trkpt>
      <trkpt lat="47.0419" lon="-0.8867">
        <ele>107</ele>
        <time>2023-05-08T19:46:11Z</time>
      </trkpt>
      <trkpt lat="47.04206" lon="-0.88515">
        <ele>106</ele>
        <time>2023-05-08T19:46:30Z</time>
      </trkpt>
      <trkpt lat="47.04159" lon="-0.88508">
        <ele>107</ele>
        <time>2023-05-08T19:46:38Z</time>
      </trkpt>
      <trkpt lat="47.04077" lon="-0.88503">
        <ele>111</ele>
        <time>2023-05-08T19:46:53Z</time>
      </trkpt>
      <trkpt lat="47.04008" lon="-0.88509">
        <ele>112</ele>
        <time>2023-05-08T19:47:05Z</time>
      </trkpt>
      <trkpt lat="47.03951" lon="-0.88518">
        <ele>113</ele>
        <time>2023-05-08T19:47:15Z</time>
      </trkpt>
      <trkpt lat="47.0395" lon="-0.88528">
        <ele>113</ele>
        <time>2023-05-08T19:47:16Z</time>
      </trkpt>
      <trkpt lat="47.03948" lon="-0.88537">
        <ele>113</ele>
        <time>2023-05-08T19:47:18Z</time>
      </trkpt>
      <trkpt lat="47.03944" lon="-0.88544">
        <ele>113</ele>
        <time>2023-05-08T19:47:19Z</time>
      </trkpt>
      <trkpt lat="47.03938" lon="-0.88549">
        <ele>113</ele>
        <time>2023-05-08T19:47:20Z</time>
      </trkpt>
      <trkpt lat="47.03932" lon="-0.88552">
        <ele>113</ele>
        <time>2023-05-08T19:47:21Z</time>
      </trkpt>
      <trkpt lat="47.03925" lon="-0.88551">
        <ele>113</ele>
        <time>2023-05-08T19:47:22Z</time>
      </trkpt>
      <trkpt lat="47.03918" lon="-0.88547">
        <ele>113</ele>
        <time>2023-05-08T19:47:24Z</time>
      </trkpt>
      <trkpt lat="47.03913" lon="-0.8854">
        <ele>113</ele>
        <time>2023-05-08T19:47:25Z</time>
      </trkpt>
      <trkpt lat="47.0391" lon="-0.88531">
        <ele>113</ele>
        <time>2023-05-08T19:47:26Z</time>
      </trkpt>
      <trkpt lat="47.03909" lon="-0.88521">
        <ele>113</ele>
        <time>2023-05-08T19:47:27Z</time>
      </trkpt>
      <trkpt lat="47.03888" lon="-0.88521">
        <ele>114</ele>
        <time>2023-05-08T19:47:31Z</time>
      </trkpt>
      <trkpt lat="47.03324" lon="-0.88445">
        <ele>120</ele>
        <time>2023-05-08T19:49:12Z</time>
      </trkpt>
      <trkpt lat="47.03282" lon="-0.88434">
        <ele>121</ele>
        <time>2023-05-08T19:49:19Z</time>
      </trkpt>
      <trkpt lat="47.03189" lon="-0.88404">
        <ele>124</ele>
        <time>2023-05-08T19:49:36Z</time>
      </trkpt>
      <trkpt lat="47.03158" lon="-0.88389">
        <ele>124</ele>
        <time>2023-05-08T19:49:42Z</time>
      </trkpt>
      <trkpt lat="47.03134" lon="-0.88372">
        <ele>125</ele>
        <time>2023-05-08T19:49:47Z</time>
      </trkpt>
      <trkpt lat="47.03091" lon="-0.88338">
        <ele>125</ele>
        <time>2023-05-08T19:49:56Z</time>
      </trkpt>
      <trkpt lat="47.03044" lon="-0.88296">
        <ele>126</ele>
        <time>2023-05-08T19:50:05Z</time>
      </trkpt>
      <trkpt lat="47.02946" lon="-0.882">
        <ele>127</ele>
        <time>2023-05-08T19:50:26Z</time>
      </trkpt>
      <trkpt lat="47.02929" lon="-0.88188">
        <ele>127</ele>
        <time>2023-05-08T19:50:30Z</time>
      </trkpt>
      <trkpt lat="47.02866" lon="-0.88149">
        <ele>128</ele>
        <time>2023-05-08T19:50:42Z</time>
      </trkpt>
      <trkpt lat="47.02808" lon="-0.88116">
        <ele>128</ele>
        <time>2023-05-08T19:50:53Z</time>
      </trkpt>
      <trkpt lat="47.02778" lon="-0.88105">
        <ele>128</ele>
        <time>2023-05-08T19:50:58Z</time>
      </trkpt>
      <trkpt lat="47.02718" lon="-0.88093">
        <ele>127</ele>
        <time>2023-05-08T19:51:09Z</time>
      </trkpt>
      <trkpt lat="47.02641" lon="-0.88093">
        <ele>126</ele>
        <time>2023-05-08T19:51:23Z</time>
      </trkpt>
      <trkpt lat="47.0244" lon="-0.88104">
        <ele>126</ele>
        <time>2023-05-08T19:51:59Z</time>
      </trkpt>
      <trkpt lat="47.02399" lon="-0.8811">
        <ele>126</ele>
        <time>2023-05-08T19:52:06Z</time>
      </trkpt>
      <trkpt lat="47.02339" lon="-0.88128">
        <ele>126</ele>
        <time>2023-05-08T19:52:17Z</time>
      </trkpt>
      <trkpt lat="47.02307" lon="-0.88141">
        <ele>126</ele>
        <time>2023-05-08T19:52:23Z</time>
      </trkpt>
      <trkpt lat="47.02286" lon="-0.88154">
        <ele>126</ele>
        <time>2023-05-08T19:52:27Z</time>
      </trkpt>
      <trkpt lat="47.02224" lon="-0.88196">
        <ele>126</ele>
        <time>2023-05-08T19:52:39Z</time>
      </trkpt>
      <trkpt lat="47.02198" lon="-0.88217">
        <ele>127</ele>
        <time>2023-05-08T19:52:44Z</time>
      </trkpt>
      <trkpt lat="47.02155" lon="-0.88258">
        <ele>127</ele>
        <time>2023-05-08T19:52:53Z</time>
      </trkpt>
      <trkpt lat="47.02122" lon="-0.88284">
        <ele>128</ele>
        <time>2023-05-08T19:53:00Z</time>
      </trkpt>
      <trkpt lat="47.02099" lon="-0.88299">
        <ele>128</ele>
        <time>2023-05-08T19:53:05Z</time>
      </trkpt>
      <trkpt lat="47.02077" lon="-0.8831">
        <ele>128</ele>
        <time>2023-05-08T19:53:09Z</time>
      </trkpt>
      <trkpt lat="47.02044" lon="-0.88321">
        <ele>129</ele>
        <time>2023-05-08T19:53:15Z</time>
      </trkpt>
      <trkpt lat="47.02011" lon="-0.88326">
        <ele>131</ele>
        <time>2023-05-08T19:53:21Z</time>
      </trkpt>
      <trkpt lat="47.01987" lon="-0.88326">
        <ele>131</ele>
        <time>2023-05-08T19:53:25Z</time>
      </trkpt>
      <trkpt lat="47.01945" lon="-0.88319">
        <ele>133</ele>
        <time>2023-05-08T19:53:32Z</time>
      </trkpt>
      <trkpt lat="47.01867" lon="-0.88291">
        <ele>133</ele>
        <time>2023-05-08T19:53:47Z</time>
      </trkpt>
      <trkpt lat="47.01821" lon="-0.88282">
        <ele>133</ele>
        <time>2023-05-08T19:53:55Z</time>
      </trkpt>
      <trkpt lat="47.01793" lon="-0.88281">
        <ele>133</ele>
        <time>2023-05-08T19:54:00Z</time>
      </trkpt>
      <trkpt lat="47.0175" lon="-0.88287">
        <ele>133</ele>
        <time>2023-05-08T19:54:08Z</time>
      </trkpt>
      <trkpt lat="47.01727" lon="-0.88297">
        <ele>134</ele>
        <time>2023-05-08T19:54:12Z</time>
      </trkpt>
      <trkpt lat="47.01722" lon="-0.88308">
        <ele>134</ele>
        <time>2023-05-08T19:54:13Z</time>
      </trkpt>
      <trkpt lat="47.01717" lon="-0.88311">
        <ele>134</ele>
        <time>2023-05-08T19:54:14Z</time>
      </trkpt>
      <trkpt lat="47.01711" lon="-0.88311">
        <ele>134</ele>
        <time>2023-05-08T19:54:15Z</time>
      </trkpt>
      <trkpt lat="47.01706" lon="-0.88308">
        <ele>134</ele>
        <time>2023-05-08T19:54:16Z</time>
      </trkpt>
      <trkpt lat="47.01702" lon="-0.88304">
        <ele>134</ele>
        <time>2023-05-08T19:54:17Z</time>
      </trkpt>
      <trkpt lat="47.01686" lon="-0.88303">
        <ele>134</ele>
        <time>2023-05-08T19:54:20Z</time>
      </trkpt>
      <trkpt lat="47.01582" lon="-0.8833">
        <ele>134</ele>
        <time>2023-05-08T19:54:39Z</time>
      </trkpt>
      <trkpt lat="47.01505" lon="-0.88346">
        <ele>135</ele>
        <time>2023-05-08T19:54:53Z</time>
      </trkpt>
      <trkpt lat="47.01382" lon="-0.88379">
        <ele>134</ele>
        <time>2023-05-08T19:55:15Z</time>
      </trkpt>
      <trkpt lat="47.01331" lon="-0.88396">
        <ele>134</ele>
        <time>2023-05-08T19:55:24Z</time>
      </trkpt>
      <trkpt lat="47.01276" lon="-0.88418">
        <ele>135</ele>
        <time>2023-05-08T19:55:34Z</time>
      </trkpt>
      <trkpt lat="47.01154" lon="-0.88475">
        <ele>136</ele>
        <time>2023-05-08T19:55:57Z</time>
      </trkpt>
      <trkpt lat="47.01022" lon="-0.88553">
        <ele>133</ele>
        <time>2023-05-08T19:56:23Z</time>
      </trkpt>
      <trkpt lat="47.00946" lon="-0.88609">
        <ele>134</ele>
        <time>2023-05-08T19:56:38Z</time>
      </trkpt>
      <trkpt lat="47.00895" lon="-0.88642">
        <ele>134</ele>
        <time>2023-05-08T19:56:48Z</time>
      </trkpt>
      <trkpt lat="47.00747" lon="-0.88725">
        <ele>135</ele>
        <time>2023-05-08T19:57:16Z</time>
      </trkpt>
      <trkpt lat="47.00712" lon="-0.88752">
        <ele>136</ele>
        <time>2023-05-08T19:57:23Z</time>
      </trkpt>
      <trkpt lat="47.00681" lon="-0.88782">
        <ele>136</ele>
        <time>2023-05-08T19:57:29Z</time>
      </trkpt>
      <trkpt lat="47.00648" lon="-0.88821">
        <ele>136</ele>
        <time>2023-05-08T19:57:37Z</time>
      </trkpt>
      <trkpt lat="47.00574" lon="-0.88917">
        <ele>137</ele>
        <time>2023-05-08T19:57:55Z</time>
      </trkpt>
      <trkpt lat="47.00542" lon="-0.88949">
        <ele>137</ele>
        <time>2023-05-08T19:58:01Z</time>
      </trkpt>
      <trkpt lat="47.00498" lon="-0.88983">
        <ele>136</ele>
        <time>2023-05-08T19:58:10Z</time>
      </trkpt>
      <trkpt lat="47.00463" lon="-0.89004">
        <ele>137</ele>
        <time>2023-05-08T19:58:17Z</time>
      </trkpt>
      <trkpt lat="47.0042" lon="-0.89025">
        <ele>138</ele>
        <time>2023-05-08T19:58:25Z</time>
      </trkpt>
      <trkpt lat="47.00357" lon="-0.89051">
        <ele>140</ele>
        <time>2023-05-08T19:58:37Z</time>
      </trkpt>
      <trkpt lat="47.00333" lon="-0.89063">
        <ele>140</ele>
        <time>2023-05-08T19:58:41Z</time>
      </trkpt>
      <trkpt lat="47.00323" lon="-0.89069">
        <ele>141</ele>
        <time>2023-05-08T19:58:43Z</time>
      </trkpt>
      <trkpt lat="47.00304" lon="-0.89084">
        <ele>141</ele>
        <time>2023-05-08T19:58:47Z</time>
      </trkpt>
      <trkpt lat="47.00278" lon="-0.89112">
        <ele>142</ele>
        <time>2023-05-08T19:58:53Z</time>
      </trkpt>
      <trkpt lat="47.00271" lon="-0.89116">
        <ele>143</ele>
        <time>2023-05-08T19:58:54Z</time>
      </trkpt>
      <trkpt lat="47.00258" lon="-0.8912">
        <ele>143</ele>
        <time>2023-05-08T19:58:56Z</time>
      </trkpt>
      <trkpt lat="47.00256" lon="-0.89132">
        <ele>143</ele>
        <time>2023-05-08T19:58:58Z</time>
      </trkpt>
      <trkpt lat="47.00253" lon="-0.89142">
        <ele>144</ele>
        <time>2023-05-08T19:58:59Z</time>
      </trkpt>
      <trkpt lat="47.00247" lon="-0.89151">
        <ele>144</ele>
        <time>2023-05-08T19:59:01Z</time>
      </trkpt>
      <trkpt lat="47.0024" lon="-0.89157">
        <ele>144</ele>
        <time>2023-05-08T19:59:02Z</time>
      </trkpt>
      <trkpt lat="47.00232" lon="-0.89159">
        <ele>144</ele>
        <time>2023-05-08T19:59:04Z</time>
      </trkpt>
      <trkpt lat="47.00223" lon="-0.89157">
        <ele>144</ele>
        <time>2023-05-08T19:59:05Z</time>
      </trkpt>
      <trkpt lat="47.00216" lon="-0.89152">
        <ele>145</ele>
        <time>2023-05-08T19:59:07Z</time>
      </trkpt>
      <trkpt lat="47.0021" lon="-0.89143">
        <ele>145</ele>
        <time>2023-05-08T19:59:08Z</time>
      </trkpt>
      <trkpt lat="47.00167" lon="-0.89186">
        <ele>146</ele>
        <time>2023-05-08T19:59:18Z</time>
      </trkpt>
      <trkpt lat="47.00169" lon="-0.89194">
        <ele>146</ele>
        <time>2023-05-08T19:59:19Z</time>
      </trkpt>
      <trkpt lat="47.00168" lon="-0.89198">
        <ele>146</ele>
        <time>2023-05-08T19:59:19Z</time>
      </trkpt>
      <trkpt lat="47.00164" lon="-0.89204">
        <ele>146</ele>
        <time>2023-05-08T19:59:20Z</time>
      </trkpt>
      <trkpt lat="47.00176" lon="-0.89239">
        <ele>146</ele>
        <time>2023-05-08T19:59:25Z</time>
      </trkpt>
      <trkpt lat="47.00189" lon="-0.89292">
        <ele>145</ele>
        <time>2023-05-08T19:59:32Z</time>
      </trkpt>
      <trkpt lat="47.00197" lon="-0.89337">
        <ele>145</ele>
        <time>2023-05-08T19:59:37Z</time>
      </trkpt>
      <trkpt lat="47.00208" lon="-0.8942">
        <ele>145</ele>
        <time>2023-05-08T19:59:48Z</time>
      </trkpt>
      <trkpt lat="47.00212" lon="-0.89422">
        <ele>144</ele>
        <time>2023-05-08T19:59:48Z</time>
      </trkpt>
      <trkpt lat="47.00213" lon="-0.89425">
        <ele>144</ele>
        <time>2023-05-08T19:59:49Z</time>
      </trkpt>
      <trkpt lat="47.00211" lon="-0.8943">
        <ele>144</ele>
        <time>2023-05-08T19:59:49Z</time>
      </trkpt>
      <trkpt lat="47.00209" lon="-0.89432">
        <ele>144</ele>
        <time>2023-05-08T19:59:50Z</time>
      </trkpt>
      <trkpt lat="47.00209" lon="-0.89443">
        <ele>144</ele>
        <time>2023-05-08T19:59:51Z</time>
      </trkpt>
      <trkpt lat="47.00211" lon="-0.89458">
        <ele>144</ele>
        <time>2023-05-08T19:59:53Z</time>
      </trkpt>
      <trkpt lat="47.00227" lon="-0.89534">
        <ele>144</ele>
        <time>2023-05-08T20:00:03Z</time>
      </trkpt>
      <trkpt lat="47.00235" lon="-0.89613">
        <ele>143</ele>
        <time>2023-05-08T20:00:12Z</time>
      </trkpt>
      <trkpt lat="47.00256" lon="-0.89705">
        <ele>140</ele>
        <time>2023-05-08T20:00:24Z</time>
      </trkpt>
      <trkpt lat="47.00263" lon="-0.89727">
        <ele>139</ele>
        <time>2023-05-08T20:00:27Z</time>
      </trkpt>
      <trkpt lat="47.0029" lon="-0.89794">
        <ele>136</ele>
        <time>2023-05-08T20:00:37Z</time>
      </trkpt>
      <trkpt lat="47.003" lon="-0.89837">
        <ele>135</ele>
        <time>2023-05-08T20:00:42Z</time>
      </trkpt>
      <trkpt lat="47.00312" lon="-0.89879">
        <ele>135</ele>
        <time>2023-05-08T20:00:48Z</time>
      </trkpt>
      <trkpt lat="47.00425" lon="-0.90149">
        <ele>129</ele>
        <time>2023-05-08T20:01:26Z</time>
      </trkpt>
      <trkpt lat="47.00448" lon="-0.9019">
        <ele>130</ele>
        <time>2023-05-08T20:01:32Z</time>
      </trkpt>
      <trkpt lat="47.00503" lon="-0.90276">
        <ele>129</ele>
        <time>2023-05-08T20:01:47Z</time>
      </trkpt>
      <trkpt lat="47.00529" lon="-0.90315">
        <ele>127</ele>
        <time>2023-05-08T20:01:53Z</time>
      </trkpt>
      <trkpt lat="47.00544" lon="-0.90338">
        <ele>126</ele>
        <time>2023-05-08T20:01:57Z</time>
      </trkpt>
      <trkpt lat="47.00553" lon="-0.90361">
        <ele>126</ele>
        <time>2023-05-08T20:02:00Z</time>
      </trkpt>
      <trkpt lat="47.00559" lon="-0.9038">
        <ele>126</ele>
        <time>2023-05-08T20:02:03Z</time>
      </trkpt>
      <trkpt lat="47.0059" lon="-0.90365">
        <ele>125</ele>
        <time>2023-05-08T20:02:09Z</time>
      </trkpt>
      <trkpt lat="47.00598" lon="-0.90356">
        <ele>125</ele>
        <time>2023-05-08T20:02:11Z</time>
      </trkpt>
      <trkpt lat="47.00605" lon="-0.90345">
        <ele>124</ele>
        <time>2023-05-08T20:02:12Z</time>
      </trkpt>
      <trkpt lat="47.00609" lon="-0.90323">
        <ele>125</ele>
        <time>2023-05-08T20:02:15Z</time>
      </trkpt>
      <trkpt lat="47.00609" lon="-0.90258">
        <ele>126</ele>
        <time>2023-05-08T20:02:23Z</time>
      </trkpt>
      <trkpt lat="47.0061" lon="-0.90246">
        <ele>126</ele>
        <time>2023-05-08T20:02:25Z</time>
      </trkpt>
      <trkpt lat="47.00614" lon="-0.90231">
        <ele>126</ele>
        <time>2023-05-08T20:02:27Z</time>
      </trkpt>
      <trkpt lat="47.00627" lon="-0.90204">
        <ele>125</ele>
        <time>2023-05-08T20:02:31Z</time>
      </trkpt>
      <trkpt lat="47.00691" lon="-0.90096">
        <ele>124</ele>
        <time>2023-05-08T20:02:48Z</time>
      </trkpt>
      <trkpt lat="47.00707" lon="-0.90074">
        <ele>124</ele>
        <time>2023-05-08T20:02:52Z</time>
      </trkpt>
      <trkpt lat="47.00716" lon="-0.90067">
        <ele>124</ele>
        <time>2023-05-08T20:02:54Z</time>
      </trkpt>
      <trkpt lat="47.00726" lon="-0.90062">
        <ele>124</ele>
        <time>2023-05-08T20:02:55Z</time>
      </trkpt>
      <trkpt lat="47.00748" lon="-0.90061">
        <ele>123</ele>
        <time>2023-05-08T20:02:59Z</time>
      </trkpt>
      <trkpt lat="47.00963" lon="-0.90095">
        <ele>119</ele>
        <time>2023-05-08T20:03:38Z</time>
      </trkpt>
      <trkpt lat="47.00996" lon="-0.9009">
        <ele>119</ele>
        <time>2023-05-08T20:03:44Z</time>
      </trkpt>
      <trkpt lat="47.0105" lon="-0.9007">
        <ele>120</ele>
        <time>2023-05-08T20:03:54Z</time>
      </trkpt>
      <trkpt lat="47.01076" lon="-0.90064">
        <ele>121</ele>
        <time>2023-05-08T20:03:58Z</time>
      </trkpt>
      <trkpt lat="47.01158" lon="-0.90056">
        <ele>123</ele>
        <time>2023-05-08T20:04:13Z</time>
      </trkpt>
      <trkpt lat="47.0118" lon="-0.90057">
        <ele>123</ele>
        <time>2023-05-08T20:04:17Z</time>
      </trkpt>
      <trkpt lat="47.01222" lon="-0.90065">
        <ele>124</ele>
        <time>2023-05-08T20:04:24Z</time>
      </trkpt>
      <trkpt lat="47.01291" lon="-0.90085">
        <ele>125</ele>
        <time>2023-05-08T20:04:37Z</time>
      </trkpt>
      <trkpt lat="47.01328" lon="-0.90094">
        <ele>127</ele>
        <time>2023-05-08T20:04:44Z</time>
      </trkpt>
      <trkpt lat="47.01398" lon="-0.90101">
        <ele>126</ele>
        <time>2023-05-08T20:04:56Z</time>
      </trkpt>
      <trkpt lat="47.01427" lon="-0.90102">
        <ele>126</ele>
        <time>2023-05-08T20:05:01Z</time>
      </trkpt>
      <trkpt lat="47.01467" lon="-0.90098">
        <ele>126</ele>
        <time>2023-05-08T20:05:08Z</time>
      </trkpt>
      <trkpt lat="47.01555" lon="-0.90077">
        <ele>126</ele>
        <time>2023-05-08T20:05:24Z</time>
      </trkpt>
      <trkpt lat="47.01645" lon="-0.90051">
        <ele>125</ele>
        <time>2023-05-08T20:05:41Z</time>
      </trkpt>
      <trkpt lat="47.01685" lon="-0.90044">
        <ele>124</ele>
        <time>2023-05-08T20:05:48Z</time>
      </trkpt>
      <trkpt lat="47.01755" lon="-0.90038">
        <ele>125</ele>
        <time>2023-05-08T20:06:00Z</time>
      </trkpt>
      <trkpt lat="47.0181" lon="-0.90037">
        <ele>125</ele>
        <time>2023-05-08T20:06:10Z</time>
      </trkpt>
      <trkpt lat="47.01812" lon="-0.90012">
        <ele>126</ele>
        <time>2023-05-08T20:06:13Z</time>
      </trkpt>
      <trkpt lat="47.01865" lon="-0.8989">
        <ele>128</ele>
        <time>2023-05-08T20:06:31Z</time>
      </trkpt>
      <trkpt lat="47.01908" lon="-0.89797">
        <ele>131</ele>
        <time>2023-05-08T20:06:44Z</time>
      </trkpt>
      <trkpt lat="47.01952" lon="-0.89749">
        <ele>135</ele>
        <time>2023-05-08T20:06:54Z</time>
      </trkpt>
      <trkpt lat="47.02114" lon="-0.89604">
        <ele>136</ele>
        <time>2023-05-08T20:07:28Z</time>
      </trkpt>
      <trkpt lat="47.02186" lon="-0.89543">
        <ele>132</ele>
        <time>2023-05-08T20:07:43Z</time>
      </trkpt>
      <trkpt lat="47.02434" lon="-0.89323">
        <ele>123</ele>
        <time>2023-05-08T20:08:34Z</time>
      </trkpt>
      <trkpt lat="47.02502" lon="-0.89267">
        <ele>123</ele>
        <time>2023-05-08T20:08:48Z</time>
      </trkpt>
      <trkpt lat="47.02533" lon="-0.89253">
        <ele>123</ele>
        <time>2023-05-08T20:08:54Z</time>
      </trkpt>
      <trkpt lat="47.02583" lon="-0.89236">
        <ele>125</ele>
        <time>2023-05-08T20:09:03Z</time>
      </trkpt>
      <trkpt lat="47.02841" lon="-0.89157">
        <ele>124</ele>
        <time>2023-05-08T20:09:50Z</time>
      </trkpt>
      <trkpt lat="47.02885" lon="-0.89143">
        <ele>125</ele>
        <time>2023-05-08T20:09:58Z</time>
      </trkpt>
      <trkpt lat="47.0295" lon="-0.8912">
        <ele>124</ele>
        <time>2023-05-08T20:10:10Z</time>
      </trkpt>
      <trkpt lat="47.02981" lon="-0.89113">
        <ele>124</ele>
        <time>2023-05-08T20:10:15Z</time>
      </trkpt>
      <trkpt lat="47.0322" lon="-0.89017">
        <ele>113</ele>
        <time>2023-05-08T20:10:59Z</time>
      </trkpt>
      <trkpt lat="47.03294" lon="-0.8899">
        <ele>111</ele>
        <time>2023-05-08T20:11:13Z</time>
      </trkpt>
      <trkpt lat="47.03364" lon="-0.88973">
        <ele>109</ele>
        <time>2023-05-08T20:11:26Z</time>
      </trkpt>
      <trkpt lat="47.03381" lon="-0.88965">
        <ele>109</ele>
        <time>2023-05-08T20:11:29Z</time>
      </trkpt>
      <trkpt lat="47.03448" lon="-0.88917">
        <ele>110</ele>
        <time>2023-05-08T20:11:42Z</time>
      </trkpt>
      <trkpt lat="47.03477" lon="-0.88904">
        <ele>110</ele>
        <time>2023-05-08T20:11:47Z</time>
      </trkpt>
      <trkpt lat="47.03534" lon="-0.88874">
        <ele>111</ele>
        <time>2023-05-08T20:11:58Z</time>
      </trkpt>
      <trkpt lat="47.03771" lon="-0.88685">
        <ele>114</ele>
        <time>2023-05-08T20:12:46Z</time>
      </trkpt>
      <trkpt lat="47.03911" lon="-0.88582">
        <ele>113</ele>
        <time>2023-05-08T20:13:14Z</time>
      </trkpt>
      <trkpt lat="47.03925" lon="-0.88551">
        <ele>113</ele>
        <time>2023-05-08T20:13:19Z</time>
      </trkpt>
      <trkpt lat="47.03918" lon="-0.88547">
        <ele>113</ele>
        <time>2023-05-08T20:13:20Z</time>
      </trkpt>
      <trkpt lat="47.03913" lon="-0.8854">
        <ele>113</ele>
        <time>2023-05-08T20:13:21Z</time>
      </trkpt>
      <trkpt lat="47.0391" lon="-0.88531">
        <ele>113</ele>
        <time>2023-05-08T20:13:22Z</time>
      </trkpt>
      <trkpt lat="47.03909" lon="-0.88521">
        <ele>113</ele>
        <time>2023-05-08T20:13:24Z</time>
      </trkpt>
      <trkpt lat="47.0391" lon="-0.88511">
        <ele>113</ele>
        <time>2023-05-08T20:13:25Z</time>
      </trkpt>
      <trkpt lat="47.03913" lon="-0.88502">
        <ele>113</ele>
        <time>2023-05-08T20:13:26Z</time>
      </trkpt>
      <trkpt lat="47.03919" lon="-0.88495">
        <ele>113</ele>
        <time>2023-05-08T20:13:27Z</time>
      </trkpt>
      <trkpt lat="47.03925" lon="-0.88491">
        <ele>113</ele>
        <time>2023-05-08T20:13:29Z</time>
      </trkpt>
      <trkpt lat="47.03932" lon="-0.88491">
        <ele>113</ele>
        <time>2023-05-08T20:13:30Z</time>
      </trkpt>
      <trkpt lat="47.03939" lon="-0.88493">
        <ele>113</ele>
        <time>2023-05-08T20:13:31Z</time>
      </trkpt>
      <trkpt lat="47.03945" lon="-0.88499">
        <ele>113</ele>
        <time>2023-05-08T20:13:32Z</time>
      </trkpt>
      <trkpt lat="47.03949" lon="-0.88508">
        <ele>113</ele>
        <time>2023-05-08T20:13:34Z</time>
      </trkpt>
      <trkpt lat="47.03951" lon="-0.88518">
        <ele>113</ele>
        <time>2023-05-08T20:13:35Z</time>
      </trkpt>
      <trkpt lat="47.04008" lon="-0.88509">
        <ele>112</ele>
        <time>2023-05-08T20:13:45Z</time>
      </trkpt>
      <trkpt lat="47.04067" lon="-0.88503">
        <ele>111</ele>
        <time>2023-05-08T20:13:56Z</time>
      </trkpt>
      <trkpt lat="47.04135" lon="-0.88506">
        <ele>109</ele>
        <time>2023-05-08T20:14:08Z</time>
      </trkpt>
    </trkseg>
  </trk>
</gpx>